createdAt,value
2022-09-18T11:45:16.031Z,99564.83
2022-09-18T11:48:16.153Z,99569.57
2022-09-18T11:51:03.065Z,99566.16
2022-09-18T11:53:55.714Z,99566.19
2022-09-18T11:56:49.049Z,99565.47
2022-09-18T11:59:43.267Z,99559.48
2022-09-18T12:02:58.762Z,99556.84
2022-09-18T12:05:52.826Z,99559.13
2022-09-18T12:09:01.951Z,99557.27
2022-09-18T12:12:11.281Z,99553.73
2022-09-18T12:15:15.591Z,99550.88
2022-09-18T12:18:08.750Z,99549.08
2022-09-18T12:20:57.195Z,99539.86
2022-09-18T12:23:39.088Z,99538.02
2022-09-18T12:26:40.446Z,99539.95
2022-09-18T12:29:41.749Z,99537.21
2022-09-18T12:32:26.445Z,99532.34
2022-09-18T12:35:36.447Z,99529.36
2022-09-18T12:38:57.284Z,99529.54
2022-09-18T12:41:58.200Z,99526.36
2022-09-18T12:44:56.988Z,99524.27
2022-09-18T12:48:02.338Z,99520.79
2022-09-18T12:51:01.225Z,99521.38
2022-09-18T12:53:52.978Z,99521.51
2022-09-18T12:57:07.916Z,99518.14
2022-09-18T13:00:14.283Z,99512.73
2022-09-18T13:03:18.260Z,99511.52
2022-09-18T13:06:12.169Z,99506.77
2022-09-18T13:09:01.676Z,99501.31
2022-09-18T13:11:50.395Z,99497.33
2022-09-18T13:14:32.083Z,99495.23
2022-09-18T13:17:21.091Z,99497.45
2022-09-18T13:20:34.490Z,99497.80
2022-09-18T13:23:23.112Z,99495.39
2022-09-18T13:26:07.917Z,99495.77
2022-09-18T13:28:51.026Z,99499.34
2022-09-18T13:31:35.315Z,99505.00
2022-09-18T13:34:18.705Z,99502.06
2022-09-18T13:37:06.630Z,99504.80
2022-09-18T13:40:27.389Z,99509.02
2022-09-18T13:43:15.381Z,99505.41
2022-09-18T13:46:03.491Z,99508.08
2022-09-18T13:48:49.819Z,99511.35
2022-09-18T13:51:36.525Z,99508.98
2022-09-18T13:54:29.078Z,99507.38
2022-09-18T13:57:18.918Z,99507.30
2022-09-18T14:00:02.706Z,99507.81
2022-09-18T14:03:16.534Z,99503.29
2022-09-18T14:05:58.735Z,99502.95
2022-09-18T14:08:40.530Z,99505.90
2022-09-18T14:11:25.291Z,99506.67
2022-09-18T14:14:12.044Z,99505.58
2022-09-18T14:16:57.079Z,99510.21
2022-09-18T14:19:45.313Z,99507.38
2022-09-18T14:22:40.679Z,99504.83
2022-09-18T14:25:54.874Z,99508.19
2022-09-18T14:28:38.101Z,99506.05
2022-09-18T14:31:28.869Z,99507.66
2022-09-18T14:34:37.630Z,99503.80
2022-09-18T14:37:35.400Z,99504.66
2022-09-18T14:40:27.473Z,99499.91
2022-09-18T14:43:17.421Z,99501.42
2022-09-18T14:45:59.592Z,99505.34
2022-09-18T14:48:41.726Z,99505.49
2022-09-18T14:51:28.544Z,99505.12
2022-09-18T14:54:22.108Z,99502.06
2022-09-18T14:57:04.618Z,99502.84
2022-09-18T14:59:53.279Z,99505.10
2022-09-18T15:02:37.118Z,99502.44
2022-09-18T15:05:21.369Z,99500.23
2022-09-18T15:08:16.061Z,99500.30
2022-09-18T15:10:59.306Z,99501.67
2022-09-18T15:13:42.417Z,99502.13
2022-09-18T15:16:33.267Z,99506.31
2022-09-18T15:19:18.091Z,99505.48
2022-09-18T15:22:01.010Z,99507.88
2022-09-18T15:24:42.765Z,99513.04
2022-09-18T15:27:25.321Z,99512.95
2022-09-18T15:30:20.333Z,99511.14
2022-09-18T15:33:05.728Z,99509.91
2022-09-18T15:35:52.113Z,99514.93
2022-09-18T15:38:43.349Z,99511.05
2022-09-18T15:41:38.846Z,99510.55
2022-09-18T15:44:49.825Z,99510.97
2022-09-18T15:47:38.421Z,99506.80
2022-09-18T15:50:20.581Z,99508.02
2022-09-18T15:53:22.602Z,99509.67
2022-09-18T15:56:07.619Z,99513.89
2022-09-18T15:58:58.540Z,99515.52
2022-09-18T16:01:46.975Z,99514.79
2022-09-18T16:04:35.139Z,99515.26
2022-09-18T16:07:20.629Z,99516.66
2022-09-18T16:10:03.616Z,99523.17
2022-09-18T16:12:45.716Z,99521.02
2022-09-18T16:15:28.057Z,99522.52
2022-09-18T16:18:16.266Z,99519.55
2022-09-18T16:21:09.124Z,99520.35
2022-09-18T16:23:59.404Z,99522.24
2022-09-18T16:26:41.612Z,99525.02
2022-09-18T16:29:23.918Z,99522.19
2022-09-18T16:32:13.210Z,99522.84
2022-09-18T16:34:55.901Z,99526.67
2022-09-18T16:37:41.688Z,99526.14
2022-09-18T16:40:27.628Z,99530.08
2022-09-18T16:43:11.009Z,99533.66
2022-09-18T16:45:55.773Z,99534.59
2022-09-18T16:48:39.000Z,99535.62
2022-09-18T16:51:22.226Z,99542.64
2022-09-18T16:54:04.457Z,99545.67
2022-09-18T16:56:51.815Z,99550.17
2022-09-18T16:59:34.262Z,99553.00
2022-09-18T17:02:22.424Z,99557.54
2022-09-18T17:05:07.835Z,99561.19
2022-09-18T17:07:49.781Z,99561.48
2022-09-18T17:10:32.937Z,99561.28
2022-09-18T17:13:14.901Z,99563.64
2022-09-18T17:16:00.085Z,99563.35
2022-09-18T17:18:44.173Z,99564.73
2022-09-18T17:21:26.252Z,99566.05
2022-09-18T17:24:10.070Z,99564.70
2022-09-18T17:26:53.494Z,99565.09
2022-09-18T17:29:35.900Z,99566.33
2022-09-18T17:32:18.516Z,99568.16
2022-09-18T17:35:01.698Z,99570.48
2022-09-18T17:37:44.815Z,99571.12
2022-09-18T17:40:27.507Z,99573.95
2022-09-18T17:43:09.988Z,99577.15
2022-09-18T17:46:04.130Z,99578.24
2022-09-18T17:48:46.374Z,99583.52
2022-09-18T17:51:29.375Z,99587.75
2022-09-18T17:54:12.275Z,99586.64
2022-09-18T17:56:55.954Z,99586.95
2022-09-18T17:59:41.341Z,99586.92
2022-09-18T18:02:23.473Z,99586.98
2022-09-18T18:05:06.249Z,99587.73
2022-09-18T18:07:49.578Z,99591.33
2022-09-18T18:10:33.536Z,99594.02
2022-09-18T18:13:22.704Z,99590.27
2022-09-18T18:16:12.896Z,99591.77
2022-09-18T18:19:06.852Z,99590.54
2022-09-18T18:21:49.930Z,99590.18
2022-09-18T18:24:33.252Z,99588.43
2022-09-18T18:27:18.383Z,99590.73
2022-09-18T18:30:01.992Z,99589.33
2022-09-18T18:32:44.081Z,99591.14
2022-09-18T18:35:26.219Z,99585.48
2022-09-18T18:38:08.253Z,99586.20
2022-09-18T18:40:53.083Z,99584.64
2022-09-18T18:43:39.934Z,99586.27
2022-09-18T18:46:25.257Z,99590.42
2022-09-18T18:49:12.177Z,99590.63
2022-09-18T18:51:54.591Z,99594.07
2022-09-18T18:54:36.691Z,99594.02
2022-09-18T18:57:18.896Z,99590.71
2022-09-18T19:00:01.510Z,99583.63
2022-09-18T19:02:44.631Z,99583.96
2022-09-18T19:05:30.623Z,99583.95
2022-09-18T19:08:14.483Z,99582.24
2022-09-18T19:10:58.100Z,99581.11
2022-09-18T19:13:45.321Z,99582.46
2022-09-18T19:16:29.723Z,99583.98
2022-09-18T19:19:16.426Z,99582.83
2022-09-18T19:21:59.934Z,99583.73
2022-09-18T19:24:44.739Z,99585.13
2022-09-18T19:27:28.498Z,99585.34
2022-09-18T19:30:10.620Z,99584.42
2022-09-18T19:32:56.615Z,99587.27
2022-09-18T19:35:38.407Z,99586.88
2022-09-18T19:38:21.428Z,99588.93
2022-09-18T19:41:20.631Z,99591.46
2022-09-18T19:44:36.595Z,99588.91
2022-09-18T19:47:37.402Z,99587.95
2022-09-18T19:50:23.733Z,99586.34
2022-09-18T19:53:06.488Z,99583.64
2022-09-18T19:56:27.804Z,99584.49
2022-09-18T19:59:16.866Z,99583.92
2022-09-18T20:02:00.651Z,99587.20
2022-09-18T20:04:42.497Z,99585.82
2022-09-18T20:07:24.400Z,99582.64
2022-09-18T20:10:12.696Z,99580.85
2022-09-18T20:12:54.943Z,99582.76
2022-09-18T20:15:36.736Z,99581.70
2022-09-18T20:18:18.529Z,99585.85
2022-09-18T20:21:06.147Z,99588.69
2022-09-18T20:23:48.467Z,99588.48
2022-09-18T20:26:30.333Z,99584.24
2022-09-18T20:29:16.167Z,99584.88
2022-09-18T20:31:58.355Z,99583.33
2022-09-18T20:34:42.838Z,99583.89
2022-09-18T20:37:33.102Z,99588.72
2022-09-18T20:40:15.039Z,99587.25
2022-09-18T20:42:56.892Z,99591.34
2022-09-18T20:45:38.787Z,99589.81
2022-09-18T20:48:25.291Z,99591.92
2022-09-18T20:51:12.618Z,99595.95
2022-09-18T20:53:57.389Z,99599.05
2022-09-18T20:56:44.787Z,99601.82
2022-09-18T20:59:27.517Z,99603.95
2022-09-18T21:02:09.756Z,99604.27
2022-09-18T21:04:52.538Z,99600.44
2022-09-18T21:07:34.844Z,99598.58
2022-09-18T21:10:16.637Z,99599.16
2022-09-18T21:12:59.046Z,99600.98
2022-09-18T21:15:47.415Z,99604.27
2022-09-18T21:18:29.492Z,99606.48
2022-09-18T21:21:12.400Z,99609.09
2022-09-18T21:24:02.067Z,99611.50
2022-09-18T21:26:46.778Z,99616.33
2022-09-18T21:29:30.091Z,99615.96
2022-09-18T21:32:12.489Z,99617.42
2022-09-18T21:34:54.896Z,99615.39
2022-09-18T21:37:36.690Z,99616.20
2022-09-18T21:40:18.630Z,99616.71
2022-09-18T21:43:00.481Z,99620.66
2022-09-18T21:45:42.275Z,99617.65
2022-09-18T21:48:24.071Z,99615.27
2022-09-18T21:51:09.138Z,99615.45
2022-09-18T21:53:51.137Z,99613.59
2022-09-18T21:56:33.852Z,99610.36
2022-09-18T21:59:15.645Z,99609.37
2022-09-18T22:01:58.108Z,99607.52
2022-09-18T22:04:42.201Z,99603.98
2022-09-18T22:07:24.712Z,99601.81
2022-09-18T22:10:07.529Z,99603.50
2022-09-18T22:12:49.526Z,99602.95
2022-09-18T22:15:32.448Z,99606.12
2022-09-18T22:18:14.240Z,99609.27
2022-09-18T22:20:57.365Z,99607.38
2022-09-18T22:23:39.160Z,99605.85
2022-09-18T22:26:25.356Z,99602.46
2022-09-18T22:29:13.804Z,99605.88
2022-09-18T22:31:56.315Z,99607.77
2022-09-18T22:34:38.213Z,99604.46
2022-09-18T22:37:20.311Z,99609.08
2022-09-18T22:40:02.458Z,99612.49
2022-09-18T22:42:44.908Z,99610.31
2022-09-18T22:45:26.715Z,99610.20
2022-09-18T22:48:08.715Z,99611.75
2022-09-18T22:50:51.119Z,99612.70
2022-09-18T22:53:33.938Z,99610.63
2022-09-18T22:56:17.268Z,99618.84
2022-09-18T22:59:02.337Z,99620.11
2022-09-18T23:01:49.088Z,99622.84
2022-09-18T23:04:33.795Z,99621.86
2022-09-18T23:07:15.604Z,99624.44
2022-09-18T23:09:57.395Z,99623.73
2022-09-18T23:12:39.191Z,99623.91
2022-09-18T23:15:20.983Z,99624.05
2022-09-18T23:18:02.776Z,99620.05
2022-09-18T23:20:44.568Z,99618.70
2022-09-18T23:23:26.363Z,99621.60
2022-09-18T23:26:19.726Z,99618.27
2022-09-18T23:29:04.386Z,99614.18
2022-09-18T23:31:50.546Z,99613.89
2022-09-18T23:34:33.856Z,99612.02
2022-09-18T23:37:15.585Z,99612.77
2022-09-18T23:39:57.452Z,99613.41
2022-09-18T23:42:39.906Z,99611.85
2022-09-18T23:45:22.316Z,99612.33
2022-09-18T23:48:04.324Z,99615.45
2022-09-18T23:50:46.106Z,99617.30
2022-09-18T23:53:31.607Z,99615.91
2022-09-18T23:56:16.555Z,99617.69
2022-09-18T23:59:01.725Z,99616.29
